TimeMST,TemperatureF,Dew PointF,Humidity,Sea Level PressureIn,VisibilityMPH,Wind Direction,Wind SpeedMPH,Gust SpeedMPH,PrecipitationIn,Events,Conditions,WindDirDegrees,DateUTC
12:53 AM,35.1,30.9,85,29.68,10.0,SSE,21.9,31.1,N/A,,Clear,150,2012-11-09 07:53:00
1:53 AM,34.0,30.9,89,29.66,10.0,SSE,18.4,28.8,N/A,,Clear,150,2012-11-09 08:53:00
2:53 AM,34.0,30.9,89,29.65,10.0,SSE,17.3,26.5,N/A,,Clear,150,2012-11-09 09:53:00
3:41 AM,33.8,30.2,87,29.64,10.0,SSE,26.5,34.5,N/A,,Partly Cloudy,160,2012-11-09 10:41:00
3:53 AM,34.0,30.9,89,29.64,10.0,SSE,24.2,34.5,N/A,,Scattered Clouds,160,2012-11-09 10:53:00
4:13 AM,33.8,30.2,87,29.64,10.0,SSE,21.9,35.7,N/A,,Mostly Cloudy,160,2012-11-09 11:13:00
4:53 AM,33.8,30.2,87,29.63,10.0,SSE,19.6,33.4,N/A,,Overcast,150,2012-11-09 11:53:00
5:53 AM,33.1,30.9,92,29.64,9.0,South,27.6,39.1,N/A,,Mostly Cloudy,170,2012-11-09 12:53:00
6:24 AM,32.0,30.2,93,29.60,8.0,South,27.6,35.7,N/A,,Mostly Cloudy,170,2012-11-09 13:24:00
6:53 AM,32.0,30.0,92,29.63,8.0,South,27.6,36.8,N/A,,Overcast,170,2012-11-09 13:53:00
7:53 AM,33.1,30.9,92,29.63,8.0,South,29.9,40.3,N/A,,Overcast,170,2012-11-09 14:53:00
8:53 AM,33.1,30.9,92,29.63,10.0,SSE,35.7,41.4,N/A,,Overcast,160,2012-11-09 15:53:00
9:53 AM,35.1,30.9,85,29.62,10.0,South,31.1,40.3,N/A,,Scattered Clouds,170,2012-11-09 16:53:00
10:53 AM,39.9,32.0,73,29.62,10.0,SSE,27.6,36.8,N/A,,Clear,160,2012-11-09 17:53:00
11:24 AM,37.4,30.2,75,29.62,10.0,SSE,11.5,18.4,N/A,,Mostly Cloudy,160,2012-11-09 18:24:00
11:53 AM,39.0,30.9,73,29.63,10.0,South,13.8,17.3,N/A,,Mostly Cloudy,170,2012-11-09 18:53:00
12:03 PM,39.2,32.0,75,29.60,10.0,SSE,20.7,-,N/A,,Scattered Clouds,160,2012-11-09 19:03:00
12:53 PM,42.1,32.0,67,29.61,10.0,SSE,16.1,20.7,N/A,,Clear,150,2012-11-09 19:53:00
1:53 PM,39.9,34.0,79,29.64,10.0,WSW,13.8,-,0.00,Rain,Light Rain,250,2012-11-09 20:53:00
2:04 PM,39.2,33.8,81,29.61,6.0,WNW,15.0,-,0.00,Rain,Light Rain,290,2012-11-09 21:04:00
2:12 PM,37.4,35.6,93,29.60,7.0,NW,12.7,-,0.01,Rain,Light Rain,310,2012-11-09 21:12:00
2:53 PM,36.0,33.1,89,29.65,10.0,NNW,8.1,-,0.01,,Overcast,340,2012-11-09 21:53:00
3:19 PM,35.6,33.8,93,29.61,10.0,North,10.4,-,N/A,,Overcast,360,2012-11-09 22:19:00
3:27 PM,35.6,33.8,93,29.60,10.0,NNW,11.5,-,N/A,,Overcast,340,2012-11-09 22:27:00
3:37 PM,35.6,33.8,93,29.61,9.0,NNW,11.5,-,N/A,,Overcast,340,2012-11-09 22:37:00
3:53 PM,35.1,33.1,92,29.67,9.0,NW,11.5,-,N/A,,Overcast,320,2012-11-09 22:53:00
4:30 PM,33.8,33.8,100,29.62,8.0,NW,10.4,-,N/A,,Overcast,320,2012-11-09 23:30:00
4:53 PM,34.0,32.0,92,29.69,10.0,NW,9.2,-,N/A,,Overcast,310,2012-11-09 23:53:00
5:53 PM,32.0,30.9,96,29.72,10.0,NW,11.5,-,N/A,,Overcast,320,2012-11-10 00:53:00
6:37 PM,32.0,30.2,93,29.64,10.0,NNW,11.5,-,N/A,,Overcast,340,2012-11-10 01:37:00
6:53 PM,32.0,30.9,96,29.70,10.0,NNW,8.1,-,N/A,,Overcast,340,2012-11-10 01:53:00
7:53 PM,32.0,30.9,96,29.71,9.0,NW,10.4,-,N/A,,Overcast,320,2012-11-10 02:53:00
8:12 PM,30.2,30.2,100,29.64,1.8,NNW,9.2,-,0.00,Snow,Light Snow,330,2012-11-10 03:12:00
8:23 PM,30.2,30.2,100,29.63,3.0,NNW,10.4,-,0.01,Snow,Light Snow,330,2012-11-10 03:23:00
8:49 PM,30.2,30.2,100,29.62,7.0,NW,10.4,-,0.01,,Overcast,320,2012-11-10 03:49:00
8:53 PM,30.9,30.0,96,29.68,9.0,NNW,9.2,-,0.01,,Overcast,330,2012-11-10 03:53:00
9:06 PM,30.2,30.2,100,29.62,10.0,NW,9.2,-,N/A,,Overcast,320,2012-11-10 04:06:00
9:36 PM,30.2,30.2,100,29.63,10.0,NW,11.5,-,N/A,,Overcast,310,2012-11-10 04:36:00
9:44 PM,30.2,30.2,100,29.65,10.0,NW,12.7,-,N/A,,Overcast,310,2012-11-10 04:44:00
9:53 PM,30.9,30.0,96,29.70,9.0,NW,12.7,-,N/A,,Overcast,310,2012-11-10 04:53:00
10:02 PM,30.2,30.2,100,29.64,1.8,NW,5.8,-,0.01,Snow,Light Snow,310,2012-11-10 05:02:00
10:12 PM,30.2,30.2,100,29.63,2.5,NW,11.5,-,0.02,Snow,Light Snow,310,2012-11-10 05:12:00
10:19 PM,30.2,28.4,93,29.63,2.5,NW,11.5,-,0.02,Snow,Light Snow,320,2012-11-10 05:19:00
10:30 PM,30.2,28.4,93,29.64,2.5,NW,11.5,-,0.02,Snow,Light Snow,310,2012-11-10 05:30:00
10:41 PM,30.2,30.2,100,29.64,3.0,NW,9.2,-,0.02,Snow,Light Snow,310,2012-11-10 05:41:00
10:53 PM,30.0,30.0,100,29.66,2.0,NNW,8.1,-,0.03,Snow,Light Snow,340,2012-11-10 05:53:00
11:01 PM,30.2,30.2,100,29.62,2.5,NNW,9.2,-,0.00,Snow,Light Snow,340,2012-11-10 06:01:00
11:11 PM,30.2,28.4,93,29.61,3.0,NNW,9.2,-,0.00,Snow,Light Snow,330,2012-11-10 06:11:00
11:22 PM,30.2,28.4,93,29.61,4.0,NNW,12.7,-,0.00,Snow,Light Snow,340,2012-11-10 06:22:00
11:45 PM,30.2,28.4,93,29.60,2.0,North,10.4,-,0.01,Snow,Light Snow,350,2012-11-10 06:45:00
11:53 PM,28.9,28.9,100,29.65,1.2,North,11.5,-,0.02,Snow,Light Snow,350,2012-11-10 06:53:00